ΕΜΥ, Εθνική Μετεωρολογική Υπηρεσία - Δελτία Καιρού, Προγνώσεις

ΑΕΡΟΝΑΥΤΙΛΙΑ

GREEK AIRPORTS CODES

TAF LGKJ 230700Z NIL=

EUROPEAN AIRPORTS CODES

LFPO 231400Z 20011KT 9999 SCT030 FEW033CB SCT040TCU BKN26008/04 Q0993 RESHRA TEMPO 21015G25KT SHRA BKN020CB=